Terminal Aerodrome Forecast
Issued by NWS

Home | Current Version | Previous Version | Text Only | Print | Product List | Glossary On
Versions: 1 2 3 4 5 6 7 8 9 10 11 12 13 14 15 16 17 18
000
FTUS46 KPDT 232320
TAFRDM
TAF
KRDM 232320Z 2400/2424 32008KT P6SM SCT045 BKN080
     FM240600 18005KT P6SM BKN080
     FM241500 VRB05KT P6SM SCT070 BKN120
     FM242100 32007KT P6SM BKN060 OVC100=

USA.gov is the U.S. government's official web portal to all federal, state and local government web resources and services.